Coffee City, Texas
Current Conditions -  °F | °C
As of 8:55 AM on Friday 19 Dec 2014 (Local Time) from KPSN Reporting Station
Moderate Rain Moderate Rain  
Wind Chill: 44°   Ceiling: 7500
Heat Index: 48°   Visibility: 5mi
Dew Point: 48°   Wind: 9mph
Humidity: 97%   Direction: 40°NE
Pressure: 30.19"   Gusts: NA
Location:  32.0056°N, 95.5543°W
Report Text: KPSN 191455Z AUTO 04008KT 5SM RA SCT006 SCT023 OVC075 08/08 A3019 RMK AO2 P0005 T00910087
Loading
Personal Weather Stations






























Interactive Weather Map New forecast layout! Learn more

10-Day Weather Forecast

Advertisements
Track Severe Weather on mobile